Coffeyville, Kansas
Current Conditions -  °F | °C
As of 4:52 AM on Thursday 18 Dec 2014 (Local Time) from KCFV Reporting Station
Haze Haze  
Wind Chill: -3°   Ceiling: 700
Heat Index:   Visibility: 3mi
Dew Point:   Wind: 7mph
Humidity: 100%   Direction: 70°ENE
Pressure: 30.16"   Gusts: NA
Location:  37.03°N, 95.62°W
Report Text: KCFV 181052Z AUTO 07006KT 3SM BR BKN007 OVC012 01/01 A3016 RMK AO2 RAB07E22 SLP220 T00060006 PNO $
Loading
Personal Weather Stations






























Interactive Weather Map New forecast layout! Learn more

10-Day Weather Forecast

Advertisements
Track Severe Weather on mobile